createdAt,value
2022-11-26T00:02:30.441Z,19.17
2022-11-26T00:05:21.356Z,15.68
2022-11-26T00:08:20.526Z,14.48
2022-11-26T00:11:11.480Z,14.95
2022-11-26T00:14:00.303Z,17.65
2022-11-26T00:16:47.451Z,13.13
2022-11-26T00:19:34.645Z,15.45
2022-11-26T00:22:28.806Z,16.95
2022-11-26T00:25:26.384Z,24.58
2022-11-26T00:28:25.923Z,18.88
2022-11-26T00:31:16.127Z,17.75
2022-11-26T00:34:06.543Z,23.52
2022-11-26T00:36:56.239Z,22.70
2022-11-26T00:39:43.441Z,19.00
2022-11-26T00:42:30.679Z,21.15
2022-11-26T00:45:24.535Z,17.73
2022-11-26T00:48:11.677Z,23.05
2022-11-26T00:50:58.820Z,22.38
2022-11-26T00:53:48.831Z,15.43
2022-11-26T00:56:38.637Z,18.02
2022-11-26T00:59:25.737Z,17.10
2022-11-26T01:02:12.796Z,20.55
2022-11-26T01:04:59.974Z,17.17
2022-11-26T01:07:48.124Z,15.13
2022-11-26T01:10:37.926Z,17.17
2022-11-26T01:13:28.134Z,14.70
2022-11-26T01:16:23.410Z,15.00
2022-11-26T01:19:13.072Z,10.82
2022-11-26T01:22:00.168Z,17.75
2022-11-26T01:24:48.287Z,18.20
2022-11-26T01:27:35.356Z,21.88
2022-11-26T01:30:29.107Z,15.13
2022-11-26T01:33:16.303Z,21.90
2022-11-26T01:36:03.592Z,16.73
2022-11-26T01:38:52.773Z,25.38
2022-11-26T01:41:53.230Z,20.75
2022-11-26T01:44:40.520Z,20.38
2022-11-26T01:47:31.639Z,22.88
2022-11-26T01:50:44.593Z,29.52
2022-11-26T01:53:55.119Z,29.13
2022-11-26T01:56:48.522Z,29.00
2022-11-26T01:59:40.032Z,26.73
2022-11-26T02:02:28.628Z,32.90
2022-11-26T02:05:27.806Z,25.88
2022-11-26T02:08:17.588Z,27.38
2022-11-26T02:11:22.560Z,30.50
2022-11-26T02:14:32.651Z,29.52
2022-11-26T02:17:36.324Z,30.23
2022-11-26T02:20:51.211Z,27.05
2022-11-26T02:23:38.399Z,25.88
2022-11-26T02:26:49.542Z,29.10
2022-11-26T02:30:01.221Z,31.88
2022-11-26T02:33:04.715Z,25.60
2022-11-26T02:36:04.623Z,26.15
2022-11-26T02:38:53.209Z,31.98
2022-11-26T02:41:46.218Z,21.85
2022-11-26T02:44:44.910Z,36.08
2022-11-26T02:47:33.673Z,25.77
2022-11-26T02:50:26.363Z,20.73
2022-11-26T02:56:08.767Z,30.73
2022-11-26T02:58:57.080Z,34.70
2022-11-26T03:01:47.186Z,27.52
2022-11-26T03:04:39.589Z,30.25
2022-11-26T03:10:20.300Z,28.63
2022-11-26T03:13:09.969Z,31.63
2022-11-26T03:15:57.424Z,22.80
2022-11-26T03:18:46.981Z,24.23
2022-11-26T03:21:35.706Z,31.90
2022-11-26T03:24:24.376Z,31.67
2022-11-26T03:27:13.929Z,29.52
2022-11-26T03:30:01.235Z,35.08
2022-11-26T03:32:52.278Z,26.35
2022-11-26T03:35:42.402Z,23.38
2022-11-26T03:38:29.476Z,28.80
2022-11-26T03:41:16.529Z,26.10
2022-11-26T03:44:03.966Z,29.75
2022-11-26T03:46:51.064Z,38.40
2022-11-26T03:49:38.264Z,27.17
2022-11-26T03:52:25.448Z,30.88
2022-11-26T03:55:12.568Z,25.75
2022-11-26T03:57:59.661Z,32.13
2022-11-26T04:00:46.871Z,34.40
2022-11-26T04:03:34.029Z,32.53
2022-11-26T04:06:22.320Z,36.13
2022-11-26T04:09:09.610Z,30.13
2022-11-26T04:11:56.733Z,34.42
2022-11-26T04:14:43.841Z,24.83
2022-11-26T04:17:30.916Z,28.33
2022-11-26T04:20:18.010Z,31.77
2022-11-26T04:23:07.551Z,38.58
2022-11-26T04:25:54.653Z,41.60
2022-11-26T04:28:43.874Z,36.42
2022-11-26T04:31:31.341Z,38.45
2022-11-26T04:34:18.440Z,26.90
2022-11-26T04:37:08.223Z,37.90
2022-11-26T04:39:58.156Z,27.13
2022-11-26T04:42:45.349Z,23.90
2022-11-26T04:45:32.517Z,25.23
2022-11-26T04:48:22.206Z,31.50
2022-11-26T04:51:09.417Z,29.15
2022-11-26T04:54:00.361Z,29.02
2022-11-26T04:56:49.846Z,29.88
2022-11-26T04:59:36.959Z,21.75
2022-11-26T05:02:26.313Z,35.40
2022-11-26T05:05:13.755Z,28.98
2022-11-26T05:08:00.890Z,32.40
2022-11-26T05:10:54.433Z,25.20
2022-11-26T05:13:44.234Z,26.50
2022-11-26T05:16:32.888Z,36.20
2022-11-26T05:19:22.412Z,26.40
2022-11-26T05:22:10.172Z,28.30
2022-11-26T05:24:57.210Z,31.38
2022-11-26T05:27:44.343Z,23.25
2022-11-26T05:30:31.546Z,26.25
2022-11-26T05:33:21.179Z,30.70
2022-11-26T05:36:08.603Z,25.73
2022-11-26T05:38:57.873Z,24.25
2022-11-26T05:41:44.941Z,40.47
2022-11-26T05:44:32.184Z,32.38
2022-11-26T05:47:19.251Z,46.05
2022-11-26T05:50:07.192Z,39.40
2022-11-26T05:52:54.282Z,39.15
2022-11-26T05:55:41.410Z,33.42
2022-11-26T05:58:30.619Z,37.80
2022-11-26T06:01:17.630Z,33.38
2022-11-26T06:04:04.992Z,42.58
2022-11-26T06:06:52.009Z,35.47
2022-11-26T06:09:39.394Z,41.80
2022-11-26T06:12:26.960Z,48.35
2022-11-26T06:15:16.597Z,35.97
2022-11-26T06:18:06.201Z,53.85
2022-11-26T06:20:53.500Z,42.97
2022-11-26T06:23:47.432Z,34.42
2022-11-26T06:26:38.928Z,41.13
2022-11-26T06:29:28.135Z,40.95
2022-11-26T06:32:17.659Z,35.67
2022-11-26T06:35:07.934Z,43.28
2022-11-26T06:37:55.045Z,39.58
2022-11-26T06:40:42.113Z,47.95
2022-11-26T06:43:30.628Z,40.20
2022-11-26T06:46:17.896Z,39.75
2022-11-26T06:49:06.494Z,41.42
2022-11-26T06:51:54.514Z,32.53
2022-11-26T06:54:41.596Z,37.28
2022-11-26T06:57:28.664Z,39.72
2022-11-26T07:00:16.006Z,41.60
2022-11-26T07:03:05.304Z,39.40
2022-11-26T07:05:54.762Z,39.13
2022-11-26T07:08:41.845Z,39.75
2022-11-26T07:11:28.949Z,39.65
2022-11-26T07:14:18.205Z,44.35
2022-11-26T07:17:05.285Z,42.60
2022-11-26T07:19:52.377Z,63.53
2022-11-26T07:22:39.515Z,62.17
2022-11-26T07:25:29.711Z,57.67
2022-11-26T07:28:16.768Z,51.67
2022-11-26T07:31:11.552Z,39.15
2022-11-26T07:34:01.844Z,43.13
2022-11-26T07:36:49.597Z,39.92
2022-11-26T07:39:38.080Z,57.17
2022-11-26T07:42:25.329Z,67.38
2022-11-26T07:45:12.429Z,53.05
2022-11-26T07:48:02.563Z,43.60
2022-11-26T07:50:52.295Z,58.90
2022-11-26T07:53:39.324Z,45.67
2022-11-26T07:56:28.144Z,52.35
2022-11-26T07:59:15.295Z,52.40
2022-11-26T08:02:04.882Z,48.90
2022-11-26T08:04:51.972Z,44.17
2022-11-26T08:07:39.233Z,90.68
2022-11-26T08:10:26.598Z,51.00
2022-11-26T08:13:13.748Z,48.25
2022-11-26T08:16:03.307Z,49.78
2022-11-26T08:18:54.900Z,36.72
2022-11-26T08:21:42.157Z,43.63
2022-11-26T08:24:31.106Z,34.85
2022-11-26T08:27:19.203Z,39.92
2022-11-26T08:30:07.053Z,39.90
2022-11-26T08:32:56.400Z,45.33
2022-11-26T08:36:05.400Z,49.35
2022-11-26T08:38:53.270Z,55.03
2022-11-26T08:41:52.729Z,43.55
2022-11-26T08:44:40.438Z,50.85
2022-11-26T08:47:28.855Z,48.42
2022-11-26T08:50:16.431Z,53.45
2022-11-26T08:53:08.313Z,49.83
2022-11-26T08:56:03.107Z,46.80
2022-11-26T08:58:52.311Z,42.92
2022-11-26T09:01:40.611Z,40.13
2022-11-26T09:04:29.006Z,50.97
2022-11-26T09:07:16.621Z,46.22
2022-11-26T09:10:04.216Z,38.35
2022-11-26T09:12:53.915Z,34.65
2022-11-26T09:15:42.253Z,29.67
2022-11-26T09:18:29.436Z,30.83
2022-11-26T09:21:19.104Z,35.63
2022-11-26T09:24:06.753Z,19.65
2022-11-26T09:26:56.630Z,17.92
2022-11-26T09:29:43.784Z,15.82
2022-11-26T09:32:34.056Z,15.85
2022-11-26T09:35:21.586Z,11.48
2022-11-26T09:38:08.684Z,10.68
2022-11-26T09:41:05.184Z,14.30
2022-11-26T09:43:55.095Z,11.90
2022-11-26T09:47:11.141Z,12.68
2022-11-26T09:50:07.816Z,13.23
2022-11-26T09:53:05.176Z,10.57
2022-11-26T09:55:56.294Z,11.75
2022-11-26T09:58:57.864Z,9.02
2022-11-26T10:01:45.319Z,12.73
2022-11-26T10:04:35.263Z,11.73
2022-11-26T10:07:56.494Z,12.82
2022-11-26T10:11:01.198Z,9.55
2022-11-26T10:14:30.420Z,10.65
2022-11-26T10:17:31.934Z,9.93
2022-11-26T10:20:34.156Z,13.50
2022-11-26T10:23:35.809Z,7.55
2022-11-26T10:26:41.867Z,13.75
2022-11-26T10:29:40.854Z,11.25
2022-11-26T10:32:35.262Z,13.05
2022-11-26T10:35:27.583Z,9.90
2022-11-26T10:38:14.752Z,9.75
2022-11-26T10:41:04.363Z,7.22
2022-11-26T10:43:51.621Z,7.57
2022-11-26T10:46:38.764Z,5.20
2022-11-26T10:49:30.244Z,6.10
2022-11-26T10:52:24.552Z,8.85
2022-11-26T10:55:30.671Z,8.93
2022-11-26T10:58:41.185Z,6.15
2022-11-26T11:01:36.856Z,10.80
2022-11-26T11:04:34.593Z,10.20
2022-11-26T11:07:39.260Z,9.80
2022-11-26T11:10:29.160Z,9.05
2022-11-26T11:13:16.440Z,8.32
2022-11-26T11:16:03.981Z,7.60
2022-11-26T11:19:00.121Z,7.65
2022-11-26T11:21:48.488Z,6.63
2022-11-26T11:24:36.168Z,9.20
2022-11-26T11:27:43.426Z,5.95
2022-11-26T11:30:34.926Z,7.78
2022-11-26T11:33:25.094Z,12.00
2022-11-26T11:36:13.272Z,6.03
2022-11-26T11:39:02.545Z,7.63
2022-11-26T11:41:51.801Z,10.63
2022-11-26T11:44:45.740Z,12.02
2022-11-26T11:47:39.141Z,7.03
2022-11-26T11:51:23.028Z,9.57
2022-11-26T11:54:31.229Z,8.55
2022-11-26T11:57:35.830Z,7.85
2022-11-26T12:00:48.215Z,10.68
2022-11-26T12:04:17.967Z,6.82
2022-11-26T12:07:29.435Z,6.93
2022-11-26T12:10:39.441Z,10.45
2022-11-26T12:13:29.503Z,8.32
2022-11-26T12:16:18.953Z,5.95
2022-11-26T12:19:33.588Z,7.45
2022-11-26T12:22:26.781Z,8.88
2022-11-26T12:25:33.563Z,11.32
2022-11-26T12:28:37.092Z,6.70
2022-11-26T12:31:40.127Z,8.60
2022-11-26T12:34:35.060Z,11.52
2022-11-26T12:37:46.845Z,8.80
2022-11-26T12:40:44.194Z,8.23
2022-11-26T12:44:05.291Z,9.32
2022-11-26T12:47:24.549Z,10.23
2022-11-26T12:50:24.293Z,10.02
2022-11-26T12:53:22.008Z,7.22
2022-11-26T12:56:38.684Z,9.85
2022-11-26T12:59:50.646Z,8.52
2022-11-26T13:02:43.683Z,11.95
2022-11-26T13:05:57.057Z,9.30
2022-11-26T13:08:50.588Z,8.38
2022-11-26T13:11:54.702Z,10.02
2022-11-26T13:14:50.901Z,11.90
2022-11-26T13:17:48.623Z,11.07
2022-11-26T13:21:16.909Z,10.65
2022-11-26T13:24:38.202Z,7.70
2022-11-26T13:27:44.512Z,10.73
2022-11-26T13:30:43.013Z,7.97
2022-11-26T13:33:50.785Z,5.72
2022-11-26T13:36:43.518Z,14.18
2022-11-26T13:39:46.659Z,12.48
2022-11-26T13:42:54.265Z,7.47
2022-11-26T13:46:02.715Z,7.60
2022-11-26T13:49:13.089Z,7.72
2022-11-26T13:52:15.276Z,6.80
2022-11-26T13:55:20.873Z,6.35
2022-11-26T13:58:17.126Z,4.88
2022-11-26T14:01:41.430Z,7.07
2022-11-26T14:04:48.568Z,9.02
2022-11-26T14:07:36.223Z,8.43
2022-11-26T14:10:35.946Z,6.88
2022-11-26T14:13:23.201Z,6.72
2022-11-26T14:16:13.153Z,4.72
2022-11-26T14:19:00.940Z,6.50
2022-11-26T14:22:03.000Z,7.28
2022-11-26T14:24:53.043Z,6.07
2022-11-26T14:27:55.101Z,11.00
2022-11-26T14:30:42.330Z,11.30
2022-11-26T14:33:30.407Z,8.00
2022-11-26T14:36:28.135Z,5.95
2022-11-26T14:39:17.159Z,8.27
2022-11-26T14:42:06.535Z,5.63
2022-11-26T14:45:17.016Z,10.30
2022-11-26T14:48:05.370Z,8.73
2022-11-26T14:50:54.430Z,10.55
2022-11-26T14:53:47.988Z,10.80
2022-11-26T14:56:41.817Z,13.20
2022-11-26T14:59:35.059Z,9.18
2022-11-26T15:02:25.909Z,7.70
2022-11-26T15:05:24.459Z,9.15
2022-11-26T15:08:20.868Z,8.70
2022-11-26T15:11:08.439Z,9.18
2022-11-26T15:13:56.867Z,12.35
2022-11-26T15:16:53.959Z,13.30
2022-11-26T15:19:42.903Z,10.82
2022-11-26T15:22:40.048Z,10.77
2022-11-26T15:25:29.837Z,16.67
2022-11-26T15:28:19.782Z,10.52
2022-11-26T15:31:10.431Z,12.55
2022-11-26T15:33:57.917Z,11.73
2022-11-26T15:36:45.135Z,13.85
2022-11-26T15:39:32.587Z,12.23
2022-11-26T15:42:28.373Z,11.23
2022-11-26T15:45:21.321Z,9.68
2022-11-26T15:48:50.442Z,12.60
2022-11-26T15:51:57.761Z,13.60
2022-11-26T15:55:12.105Z,23.92
2022-11-26T15:58:07.597Z,23.58
2022-11-26T16:01:01.298Z,17.77
2022-11-26T16:03:55.127Z,16.02
2022-11-26T16:06:42.991Z,14.23
2022-11-26T16:09:32.739Z,14.73
2022-11-26T16:12:34.294Z,17.50
2022-11-26T16:15:27.053Z,22.23
2022-11-26T16:21:18.785Z,23.90
2022-11-26T16:24:21.958Z,22.38
2022-11-26T16:27:12.216Z,24.45
2022-11-26T16:30:01.868Z,27.63
2022-11-26T16:32:53.719Z,36.22
2022-11-26T16:35:46.075Z,26.27
2022-11-26T16:38:33.786Z,29.45
2022-11-26T16:41:22.630Z,31.48
2022-11-26T16:44:12.008Z,27.40
2022-11-26T16:47:01.305Z,35.63
2022-11-26T16:49:48.443Z,46.15
2022-11-26T16:52:40.960Z,41.03
2022-11-26T16:55:28.408Z,48.15
2022-11-26T16:58:36.313Z,77.43
2022-11-26T17:01:23.538Z,82.80
2022-11-26T17:04:13.433Z,66.47
2022-11-26T17:07:00.992Z,57.25
2022-11-26T17:09:48.581Z,64.75
2022-11-26T17:12:40.594Z,50.30
2022-11-26T17:15:27.902Z,71.28
2022-11-26T17:18:23.622Z,61.00
2022-11-26T17:21:10.930Z,50.15
2022-11-26T17:23:58.067Z,59.88
2022-11-26T17:26:45.151Z,47.63
2022-11-26T17:29:32.823Z,52.65
2022-11-26T17:32:20.188Z,61.45
2022-11-26T17:35:08.340Z,58.45
2022-11-26T17:37:57.771Z,48.45
2022-11-26T17:40:46.445Z,48.30
2022-11-26T17:43:33.597Z,55.33
2022-11-26T17:46:21.686Z,43.38
2022-11-26T17:49:09.871Z,41.55
2022-11-26T17:51:57.172Z,43.28
2022-11-26T17:54:45.387Z,54.13
2022-11-26T17:57:32.662Z,55.15
2022-11-26T18:00:28.324Z,64.78
2022-11-26T18:03:17.734Z,71.43
2022-11-26T18:07:07.522Z,72.95
2022-11-26T18:09:57.915Z,56.78
2022-11-26T18:12:45.394Z,75.97
2022-11-26T18:15:35.523Z,69.25
2022-11-26T18:18:22.678Z,73.63
2022-11-26T18:21:12.062Z,71.70
2022-11-26T18:23:59.164Z,58.13
2022-11-26T18:26:46.790Z,63.03
2022-11-26T18:29:33.921Z,67.70
2022-11-26T18:32:21.179Z,71.65
2022-11-26T18:35:09.250Z,86.85
2022-11-26T18:37:56.364Z,65.13
2022-11-26T18:40:45.633Z,70.75
2022-11-26T18:43:34.757Z,76.38
2022-11-26T18:46:22.070Z,91.53
2022-11-26T18:49:09.831Z,81.75
2022-11-26T18:51:57.126Z,77.38
2022-11-26T18:54:44.233Z,89.35
2022-11-26T18:57:35.007Z,103.15
2022-11-26T19:00:22.308Z,94.28
2022-11-26T19:03:09.851Z,84.88
2022-11-26T19:05:57.139Z,79.53
2022-11-26T19:08:44.757Z,84.75
2022-11-26T19:11:32.749Z,75.82
2022-11-26T19:14:21.151Z,89.88
2022-11-26T19:17:08.512Z,82.32
2022-11-26T19:19:55.789Z,82.25
2022-11-26T19:22:46.545Z,85.47
2022-11-26T19:25:34.019Z,83.90
2022-11-26T19:28:28.025Z,75.40
2022-11-26T19:31:22.013Z,92.10
2022-11-26T19:34:13.935Z,75.78
2022-11-26T19:37:03.621Z,88.70
2022-11-26T19:39:50.932Z,91.55
2022-11-26T19:42:38.212Z,92.82
2022-11-26T19:45:28.153Z,83.15
2022-11-26T19:48:15.371Z,89.00
2022-11-26T19:51:04.879Z,85.85
2022-11-26T19:53:54.920Z,86.78
2022-11-26T19:56:45.997Z,97.85
2022-11-26T19:59:33.758Z,104.72
2022-11-26T20:02:23.461Z,94.13
2022-11-26T20:05:15.422Z,86.07
2022-11-26T20:08:02.817Z,105.35
2022-11-26T20:10:51.215Z,88.47
2022-11-26T20:13:42.775Z,86.93
2022-11-26T20:16:32.535Z,89.28
2022-11-26T20:19:22.203Z,101.63
2022-11-26T20:22:10.065Z,101.60
2022-11-26T20:25:00.151Z,116.18
2022-11-26T20:27:47.302Z,109.75
2022-11-26T20:30:34.655Z,108.90
2022-11-26T20:33:23.406Z,107.82
2022-11-26T20:36:13.405Z,103.57
2022-11-26T20:39:02.245Z,107.60
2022-11-26T20:41:50.269Z,122.43
2022-11-26T20:44:38.925Z,107.68
2022-11-26T20:47:27.076Z,118.72
2022-11-26T20:50:15.078Z,112.70
2022-11-26T20:53:04.623Z,105.55
2022-11-26T20:55:56.453Z,114.72
2022-11-26T20:58:43.769Z,123.37
2022-11-26T21:01:33.527Z,127.63
2022-11-26T21:04:20.944Z,140.13
2022-11-26T21:07:08.276Z,119.25
2022-11-26T21:09:56.839Z,145.55
2022-11-26T21:12:44.222Z,146.57
2022-11-26T21:15:33.958Z,169.10
2022-11-26T21:18:22.423Z,143.13
2022-11-26T21:21:17.089Z,144.82
2022-11-26T21:24:06.210Z,142.07
2022-11-26T21:26:58.272Z,176.48
2022-11-26T21:29:46.623Z,271.10
2022-11-26T21:32:34.306Z,230.45
2022-11-26T21:35:21.614Z,170.13
2022-11-26T21:38:08.929Z,172.20
2022-11-26T21:40:56.057Z,193.77
2022-11-26T21:43:45.222Z,303.30
2022-11-26T21:46:37.930Z,172.85
2022-11-26T21:49:28.248Z,134.65
2022-11-26T21:52:15.301Z,160.02
2022-11-26T21:55:03.927Z,142.98
2022-11-26T21:57:51.506Z,151.43
2022-11-26T22:00:38.901Z,146.43
2022-11-26T22:03:26.044Z,201.90
2022-11-26T22:06:13.504Z,194.05
2022-11-26T22:09:05.267Z,214.02
2022-11-26T22:11:52.473Z,208.07
2022-11-26T22:14:44.448Z,111.15
2022-11-26T22:17:31.604Z,190.30
2022-11-26T22:20:19.023Z,165.60
2022-11-26T22:23:09.240Z,190.18
2022-11-26T22:25:56.329Z,607.00
2022-11-26T22:28:43.460Z,726.47
2022-11-26T22:31:38.121Z,458.40
2022-11-26T22:34:27.318Z,260.75
2022-11-26T22:37:14.839Z,90.22
2022-11-26T22:40:01.963Z,90.55
2022-11-26T22:42:49.375Z,167.05
2022-11-26T22:45:38.491Z,93.25
2022-11-26T22:48:26.007Z,191.95
2022-11-26T22:51:13.366Z,199.77
2022-11-26T22:54:09.579Z,151.35
2022-11-26T22:56:59.691Z,101.45
2022-11-26T22:59:49.277Z,112.60
2022-11-26T23:02:36.494Z,155.27
2022-11-26T23:05:23.699Z,131.43
2022-11-26T23:08:12.804Z,81.38
2022-11-26T23:11:06.908Z,70.88
2022-11-26T23:13:55.381Z,296.00
2022-11-26T23:16:51.529Z,213.93
2022-11-26T23:23:41.045Z,112.57
2022-11-26T23:26:31.085Z,117.28
2022-11-26T23:29:18.252Z,79.15
2022-11-26T23:32:06.427Z,86.25
2022-11-26T23:34:53.854Z,68.00
2022-11-26T23:37:41.135Z,78.00
2022-11-26T23:40:35.910Z,224.07
2022-11-26T23:43:25.119Z,293.45
2022-11-26T23:46:31.498Z,291.05
2022-11-26T23:49:18.770Z,354.90
2022-11-26T23:52:08.422Z,220.18
2022-11-26T23:54:55.628Z,445.05
2022-11-26T23:57:42.807Z,569.78
